createdAt,value
2017-10-10T00:02:56.647Z,5.30
2017-10-10T00:05:53.334Z,4.35
2017-10-10T00:08:49.922Z,3.70
2017-10-10T00:18:37.527Z,6.32
2017-10-10T00:38:09.182Z,3.87
2017-10-10T00:40:35.009Z,4.00
2017-10-10T00:43:24.423Z,4.73
2017-10-10T00:46:21.106Z,4.30
2017-10-10T00:49:17.726Z,3.90
2017-10-10T00:52:14.385Z,4.07
2017-10-10T00:55:11.277Z,3.92
2017-10-10T00:58:07.897Z,3.08
2017-10-10T01:01:12.969Z,3.83
2017-10-10T01:03:38.749Z,3.55
2017-10-10T01:06:27.993Z,4.30
2017-10-10T01:09:24.485Z,4.10
2017-10-10T01:12:21.227Z,3.83
2017-10-10T01:15:17.843Z,4.22
2017-10-10T01:18:15.256Z,4.50
2017-10-10T01:27:22.603Z,4.57
2017-10-10T01:30:11.253Z,4.23
2017-10-10T01:33:08.261Z,5.03
2017-10-10T01:36:05.010Z,4.22
2017-10-10T01:39:02.416Z,3.97
2017-10-10T01:41:58.984Z,4.32
2017-10-10T01:44:56.398Z,4.30
2017-10-10T01:47:53.232Z,3.87
2017-10-10T01:50:19.069Z,4.50
2017-10-10T01:53:08.183Z,4.70
2017-10-10T01:56:04.912Z,4.10
2017-10-10T01:59:01.684Z,3.72
2017-10-10T02:01:58.979Z,4.32
2017-10-10T02:04:56.442Z,4.80
2017-10-10T02:14:02.504Z,4.70
2017-10-10T02:16:52.115Z,4.87
2017-10-10T02:19:48.972Z,4.22
2017-10-10T02:35:36.949Z,3.85
2017-10-10T02:38:26.321Z,3.73
2017-10-10T02:41:23.653Z,4.20
2017-10-10T02:44:20.485Z,3.40
2017-10-10T02:57:01.604Z,4.03
2017-10-10T02:59:50.789Z,4.12
2017-10-10T03:02:47.701Z,4.07
2017-10-10T03:05:44.323Z,4.15
2017-10-10T03:08:40.926Z,3.78
2017-10-10T03:11:38.372Z,4.30
2017-10-10T03:14:34.894Z,4.03
2017-10-10T03:17:32.346Z,4.35
2017-10-10T03:36:38.979Z,4.00
2017-10-10T03:55:46.254Z,4.70
2017-10-10T03:58:42.889Z,4.15
2017-10-10T04:01:40.038Z,4.93
2017-10-10T04:04:20.901Z,4.82
2017-10-10T04:23:52.029Z,5.30
2017-10-10T04:26:17.863Z,4.75
2017-10-10T04:29:07.162Z,4.77
2017-10-10T04:48:14.428Z,5.30
2017-10-10T04:51:04.945Z,6.93
2017-10-10T04:54:02.394Z,6.12
2017-10-10T05:13:06.486Z,5.50
2017-10-10T05:16:03.236Z,5.25
2017-10-10T05:35:09.717Z,4.90
2017-10-10T05:54:17.795Z,3.95
2017-10-10T05:57:07.305Z,4.40
2017-10-10T06:00:03.996Z,3.70
2017-10-10T06:03:00.879Z,4.82
2017-10-10T06:05:57.438Z,4.95
2017-10-10T06:15:48.299Z,4.10
2017-10-10T06:18:37.354Z,4.25
2017-10-10T06:37:50.575Z,4.30
2017-10-10T06:40:39.938Z,4.20
2017-10-10T06:59:52.543Z,3.30
2017-10-10T07:19:29.393Z,3.42
2017-10-10T07:38:38.339Z,3.00
2017-10-10T07:41:35.829Z,2.87
2017-10-10T07:44:01.582Z,3.50
2017-10-10T07:46:50.832Z,2.93
2017-10-10T07:49:48.360Z,2.78
2017-10-10T07:52:45.434Z,3.37
2017-10-10T07:55:43.025Z,3.15
2017-10-10T07:58:39.966Z,2.90
2017-10-10T08:01:37.098Z,3.10
2017-10-10T08:04:34.055Z,3.67
2017-10-10T08:06:59.822Z,2.80
2017-10-10T08:09:50.468Z,3.13
2017-10-10T08:29:02.169Z,2.83
2017-10-10T08:31:51.092Z,3.60
2017-10-10T08:34:48.550Z,2.22
2017-10-10T08:37:46.490Z,1.90
2017-10-10T08:40:44.548Z,2.50
2017-10-10T08:43:42.308Z,2.70
2017-10-10T08:46:39.457Z,2.50
2017-10-10T08:49:36.586Z,2.00
2017-10-10T09:08:47.623Z,2.85
2017-10-10T09:11:44.675Z,2.80
2017-10-10T09:14:10.466Z,2.37
2017-10-10T09:16:59.954Z,2.60
2017-10-10T09:19:57.023Z,3.03
2017-10-10T09:22:54.249Z,2.42
2017-10-10T09:25:51.785Z,2.37
2017-10-10T09:28:49.774Z,2.92
2017-10-10T09:31:46.878Z,2.30
2017-10-10T09:37:34.483Z,3.87
2017-10-10T09:40:23.477Z,2.00
2017-10-10T09:43:21.250Z,2.87
2017-10-10T09:46:18.395Z,2.70
2017-10-10T09:49:15.499Z,2.20
2017-10-10T09:52:13.003Z,2.30
2017-10-10T09:55:09.878Z,1.90
2017-10-10T09:58:07.030Z,2.40
2017-10-10T10:17:24.198Z,2.10
2017-10-10T10:20:20.799Z,2.15
2017-10-10T10:22:46.611Z,1.80
2017-10-10T10:25:36.157Z,1.33
2017-10-10T10:28:33.553Z,1.30
2017-10-10T10:44:21.092Z,1.00
2017-10-10T11:03:58.389Z,1.00
2017-10-10T11:06:24.170Z,1.35
2017-10-10T11:25:55.441Z,1.90
2017-10-10T11:28:21.237Z,1.67
2017-10-10T11:31:10.565Z,1.90
2017-10-10T11:50:18.679Z,1.50
2017-10-10T11:53:08.244Z,1.53
2017-10-10T12:12:16.313Z,1.90
2017-10-10T12:31:46.938Z,1.52
2017-10-10T12:34:12.739Z,1.90
2017-10-10T12:37:01.411Z,3.30
2017-10-10T12:56:09.865Z,1.95
2017-10-10T13:15:41.081Z,2.15
2017-10-10T13:34:47.865Z,2.83
2017-10-10T13:37:45.277Z,3.00
2017-10-10T13:40:11.049Z,2.65
2017-10-10T13:59:42.609Z,0.77
2017-10-10T14:02:08.405Z,0.80
2017-10-10T14:04:57.937Z,0.70
2017-10-10T14:07:55.336Z,0.77
2017-10-10T14:26:59.248Z,1.00
2017-10-10T14:29:56.315Z,0.90
2017-10-10T14:32:53.810Z,0.90
2017-10-10T14:45:34.623Z,0.70
2017-10-10T14:48:23.788Z,1.65
2017-10-10T14:51:20.519Z,0.85
2017-10-10T14:54:17.247Z,0.80
2017-10-10T15:07:10.969Z,0.85
2017-10-10T15:10:00.323Z,1.02
2017-10-10T15:12:57.613Z,1.50
2017-10-10T15:15:54.227Z,1.20
2017-10-10T15:18:51.710Z,1.10
2017-10-10T15:21:48.309Z,1.00
2017-10-10T15:24:45.320Z,1.08
2017-10-10T15:27:42.711Z,1.15
2017-10-10T15:30:08.486Z,1.33
2017-10-10T15:49:38.981Z,2.50
2017-10-10T16:08:58.163Z,2.23
2017-10-10T16:14:44.912Z,2.93
2017-10-10T16:17:33.947Z,6.07
2017-10-10T16:20:30.483Z,1.85
2017-10-10T16:39:32.001Z,5.82
2017-10-10T16:58:39.762Z,5.07
2017-10-10T17:01:29.111Z,9.07
2017-10-10T17:20:37.464Z,6.70
2017-10-10T17:23:26.898Z,7.00
2017-10-10T17:26:23.657Z,21.15
2017-10-10T17:29:20.449Z,10.68
2017-10-10T17:32:17.736Z,5.43
2017-10-10T17:35:14.646Z,4.72
2017-10-10T17:44:21.042Z,4.80
2017-10-10T17:47:10.532Z,4.20
2017-10-10T17:50:08.059Z,3.85
2017-10-10T18:09:14.607Z,6.00
2017-10-10T18:12:12.021Z,3.62
2017-10-10T18:31:18.656Z,3.28
2017-10-10T18:34:15.864Z,3.00
2017-10-10T18:37:12.586Z,3.50
2017-10-10T18:49:52.550Z,3.28
2017-10-10T18:52:41.809Z,3.45
2017-10-10T19:11:49.033Z,3.47
2017-10-10T19:14:38.446Z,2.20
2017-10-10T19:33:46.933Z,2.40
2017-10-10T19:36:36.344Z,2.90
2017-10-10T19:39:33.189Z,6.28
2017-10-10T19:42:29.968Z,4.18
2017-10-10T19:55:14.140Z,2.15
2017-10-10T19:58:03.226Z,2.90
2017-10-10T20:01:00.598Z,3.03
2017-10-10T20:16:48.009Z,2.37
2017-10-10T20:19:36.838Z,2.70
2017-10-10T20:22:33.410Z,3.10
2017-10-10T20:25:29.981Z,8.48
2017-10-10T20:28:27.052Z,2.10
2017-10-10T20:38:16.295Z,3.03
2017-10-10T20:57:47.817Z,2.50
2017-10-10T21:00:13.658Z,2.10
2017-10-10T21:19:45.872Z,2.33
2017-10-10T21:38:49.925Z,2.58
2017-10-10T21:44:36.184Z,2.83
2017-10-10T21:47:25.561Z,3.63
2017-10-10T21:50:22.243Z,2.92
2017-10-10T21:53:18.769Z,2.80
2017-10-10T22:06:01.931Z,2.90
2017-10-10T22:08:51.518Z,3.10
2017-10-10T22:11:48.545Z,3.10
2017-10-10T22:14:45.705Z,3.10
2017-10-10T22:17:43.783Z,2.80
2017-10-10T22:20:40.702Z,4.25
2017-10-10T22:29:48.744Z,3.70
2017-10-10T22:49:24.677Z,5.07
2017-10-10T22:51:50.473Z,4.87
2017-10-10T23:11:25.692Z,4.95
2017-10-10T23:13:51.534Z,4.90
2017-10-10T23:16:41.405Z,4.60
2017-10-10T23:19:39.025Z,6.10
2017-10-10T23:22:35.657Z,5.15
2017-10-10T23:25:33.117Z,5.32
2017-10-10T23:28:30.586Z,5.10
2017-10-10T23:31:27.219Z,4.72
2017-10-10T23:37:14.058Z,4.45
2017-10-10T23:40:03.621Z,4.90
2017-10-10T23:43:00.474Z,4.93
2017-10-10T23:45:57.781Z,5.10
2017-10-10T23:58:39.234Z,5.10
